Time;durP1;ratioP1;P1;durP2;ratioP2;P2;SDS_P1;SDS_P2;PMS_P1;PMS_P2;Temp;Humidity;BMP_temperature;BMP_pressure;BME280_temperature;BME280_humidity;BME280_pressure;Samples;Min_cycle;Max_cycle;Signal;HPM_P1;HPM_P2
2023/06/03 04:01:43;;;;;;;5.28;1.63;;;10.20;99.90;;;;;;5401824;23;20050;-76
2023/06/03 04:04:20;;;;;;;2.22;1.25;;;10.20;99.90;;;;;;4980663;28;20049;-76
2023/06/03 04:06:46;;;;;;;4.53;1.50;;;10.20;99.90;;;;;;4973526;28;20090;-76
2023/06/03 04:09:11;;;;;;;4.22;1.50;;;10.20;99.90;;;;;;4973227;28;20089;-76
2023/06/03 04:11:38;;;;;;;4.10;1.40;;;10.20;99.90;;;;;;4974366;28;20402;-76
2023/06/03 04:14:06;;;;;;;2.97;1.50;;;10.30;99.90;;;;;;4973416;28;20057;-77
2023/06/03 04:16:51;;;;;;;5.05;1.25;;;10.30;99.90;;;;;;4973090;28;20047;-76
2023/06/03 04:19:32;;;;;;;3.13;1.50;;;10.30;99.90;;;;;;4974968;28;20038;-77
2023/06/03 04:22:04;;;;;;;6.57;1.50;;;10.30;99.90;;;;;;4973065;28;20490;-76
2023/06/03 04:24:32;;;;;;;4.03;1.27;;;10.30;99.90;;;;;;4973738;28;20439;-76
2023/06/03 04:26:58;;;;;;;5.20;1.35;;;10.30;99.90;;;;;;4972997;28;20051;-75
2023/06/03 04:29:24;;;;;;;5.78;1.50;;;10.30;99.90;;;;;;4972998;28;20624;-76
2023/06/03 04:31:50;;;;;;;6.03;2.08;;;10.30;99.90;;;;;;4973003;28;20043;-76
2023/06/03 04:34:16;;;;;;;4.00;1.90;;;10.30;99.90;;;;;;4975052;28;20043;-76
2023/06/03 04:36:42;;;;;;;4.10;1.48;;;10.30;99.90;;;;;;4972899;28;20166;-75
2023/06/03 04:39:08;;;;;;;3.65;1.50;;;10.30;99.90;;;;;;4972981;28;20122;-76
2023/06/03 04:41:37;;;;;;;7.82;2.58;;;10.40;99.90;;;;;;4972915;28;20048;-76
2023/06/03 04:44:03;;;;;;;4.85;1.60;;;10.40;99.90;;;;;;4975051;28;20046;-75
2023/06/03 04:46:29;;;;;;;6.68;2.17;;;10.40;99.90;;;;;;4976810;28;20526;-76
2023/06/03 04:48:59;;;;;;;3.47;1.60;;;10.40;99.90;;;;;;4978009;28;20151;-77
2023/06/03 04:51:28;;;;;;;3.20;1.33;;;10.40;99.90;;;;;;4977844;28;20047;-76
2023/06/03 04:53:56;;;;;;;5.10;1.70;;;10.50;99.90;;;;;;4978189;28;20121;-76
2023/06/03 04:56:24;;;;;;;6.30;1.80;;;10.40;99.90;;;;;;4978108;28;20057;-76
2023/06/03 04:58:55;;;;;;;3.50;1.35;;;10.40;99.90;;;;;;4976404;28;20062;-76
2023/06/03 05:01:25;;;;;;;3.90;1.65;;;10.40;99.90;;;;;;4978062;28;20034;-76
2023/06/03 05:03:52;;;;;;;4.25;1.35;;;10.40;99.90;;;;;;4960399;28;20082;-76
2023/06/03 05:06:19;;;;;;;4.28;1.52;;;10.40;99.90;;;;;;4977578;28;20058;-75
2023/06/03 05:08:50;;;;;;;4.30;1.42;;;10.40;99.90;;;;;;4960667;28;20439;-76
2023/06/03 05:11:17;;;;;;;3.83;1.35;;;10.40;99.90;;;;;;4976273;28;20051;-76
2023/06/03 05:13:44;;;;;;;7.63;1.77;;;10.40;99.90;;;;;;4976514;28;20046;-76
2023/06/03 05:16:10;;;;;;;3.78;1.30;;;10.40;99.90;;;;;;4976240;28;20042;-76
2023/06/03 05:18:36;;;;;;;3.97;1.33;;;10.50;99.90;;;;;;4960704;28;20340;-76
2023/06/03 05:21:02;;;;;;;6.07;1.50;;;10.50;99.90;;;;;;4976634;28;20047;-75
2023/06/03 05:23:28;;;;;;;6.00;1.50;;;10.50;99.90;;;;;;4977399;28;20043;-76
2023/06/03 05:25:54;;;;;;;3.50;1.20;;;10.60;99.90;;;;;;4976134;28;20211;-76
2023/06/03 05:28:19;;;;;;;4.25;1.40;;;10.60;99.90;;;;;;4976483;28;20047;-76
2023/06/03 05:30:45;;;;;;;4.22;1.10;;;10.60;99.90;;;;;;4975962;28;20047;-76
2023/06/03 05:33:32;;;;;;;4.53;1.20;;;10.70;99.90;;;;;;4975977;28;20089;-76
2023/06/03 05:35:58;;;;;;;3.50;1.45;;;10.70;99.90;;;;;;4977014;28;20093;-76
2023/06/03 05:38:24;;;;;;;3.97;1.75;;;10.70;99.90;;;;;;4977052;28;20047;-76
2023/06/03 05:40:51;;;;;;;2.83;1.30;;;10.70;99.90;;;;;;4976971;28;20529;-75
2023/06/03 05:43:20;;;;;;;6.88;1.50;;;10.80;99.90;;;;;;4977110;28;20062;-76
2023/06/03 05:45:46;;;;;;;16.85;1.52;;;10.90;99.90;;;;;;4977282;28;20035;-76
2023/06/03 05:48:12;;;;;;;3.63;1.33;;;10.90;99.90;;;;;;4977650;28;20354;-77
2023/06/03 05:50:46;;;;;;;5.85;2.17;;;11.00;99.90;;;;;;4975601;28;20042;-76
2023/06/03 05:53:12;;;;;;;4.18;1.30;;;11.10;99.90;;;;;;4975671;28;20437;-77
2023/06/03 05:55:37;;;;;;;4.53;1.20;;;11.20;99.90;;;;;;4974869;28;20129;-76
2023/06/03 05:58:03;;;;;;;5.25;1.70;;;11.30;99.90;;;;;;4975462;28;20069;-75
2023/06/03 06:00:28;;;;;;;4.32;1.25;;;11.30;99.90;;;;;;4975504;28;20054;-75
2023/06/03 06:02:54;;;;;;;3.33;1.27;;;11.40;99.90;;;;;;4975529;28;20058;-75
2023/06/03 06:05:20;;;;;;;3.22;1.40;;;11.40;99.90;;;;;;4975400;28;20039;-76
2023/06/03 06:07:45;;;;;;;4.65;1.77;;;11.50;99.90;;;;;;4975241;28;20164;-75
2023/06/03 06:10:11;;;;;;;4.60;1.52;;;11.50;99.90;;;;;;4976746;28;20065;-75
2023/06/03 06:12:37;;;;;;;3.92;1.35;;;11.50;99.90;;;;;;4975212;28;20043;-75
2023/06/03 06:15:03;;;;;;;4.40;1.13;;;11.50;99.90;;;;;;4976419;28;20371;-75
2023/06/03 06:17:28;;;;;;;3.75;1.10;;;11.50;99.90;;;;;;4976829;28;20042;-76
2023/06/03 06:19:54;;;;;;;5.75;1.67;;;11.60;99.90;;;;;;4977191;28;20078;-76
2023/06/03 06:22:19;;;;;;;3.53;1.27;;;11.60;99.90;;;;;;4975293;28;20050;-76
2023/06/03 06:24:45;;;;;;;4.28;1.40;;;11.60;99.90;;;;;;4975260;28;20097;-75
2023/06/03 06:27:11;;;;;;;4.05;1.33;;;11.60;99.90;;;;;;4977000;28;20042;-75
2023/06/03 06:29:36;;;;;;;4.03;1.25;;;11.70;99.90;;;;;;4976821;28;20042;-76
2023/06/03 06:32:05;;;;;;;5.10;1.38;;;11.70;99.90;;;;;;4975246;28;20478;-76
2023/06/03 06:34:34;;;;;;;4.25;1.48;;;11.70;99.90;;;;;;4959414;28;20050;-76
2023/06/03 06:37:00;;;;;;;3.10;1.10;;;11.80;99.90;;;;;;4976396;28;20498;-76
2023/06/03 06:39:34;;;;;;;4.57;1.17;;;11.80;99.90;;;;;;4977137;28;20043;-76
2023/06/03 06:42:32;;;;;;;4.17;1.10;;;11.90;99.90;;;;;;4976401;28;20046;-75
2023/06/03 06:45:05;;;;;;;3.58;1.10;;;11.90;99.90;;;;;;4975183;28;20039;-76
2023/06/03 06:47:36;;;;;;;4.93;1.02;;;12.10;99.90;;;;;;4976610;28;20042;-76
2023/06/03 06:50:03;;;;;;;3.25;1.10;;;12.10;99.90;;;;;;4976456;28;20050;-81
2023/06/03 06:52:29;;;;;;;5.30;1.20;;;12.20;99.90;;;;;;4974536;28;20054;-76
2023/06/03 06:54:55;;;;;;;3.45;0.98;;;12.30;99.90;;;;;;4975880;28;20429;-76
2023/06/03 06:57:23;;;;;;;2.35;1.10;;;12.40;99.90;;;;;;4975581;28;20090;-76
2023/06/03 06:59:52;;;;;;;5.40;1.13;;;12.50;99.90;;;;;;4976333;28;20034;-76
2023/06/03 07:02:18;;;;;;;2.75;1.08;;;12.60;99.90;;;;;;4974023;28;20125;-76
2023/06/03 07:04:44;;;;;;;3.72;1.02;;;12.70;99.90;;;;;;4974194;28;20091;-76
2023/06/03 07:07:12;;;;;;;2.78;1.20;;;12.80;99.90;;;;;;4975529;28;20050;-76
2023/06/03 07:09:38;;;;;;;2.78;1.00;;;12.90;99.90;;;;;;4974367;28;20051;-76
2023/06/03 07:12:04;;;;;;;2.80;0.88;;;13.00;99.90;;;;;;4974272;28;20117;-76
2023/06/03 07:14:30;;;;;;;2.75;0.98;;;13.20;99.90;;;;;;4975328;28;20047;-76
2023/06/03 07:16:56;;;;;;;3.50;0.77;;;13.30;99.90;;;;;;4975470;28;20050;-76
2023/06/03 07:19:22;;;;;;;6.78;1.15;;;13.40;99.90;;;;;;4974252;28;20046;-76
2023/06/03 07:21:50;;;;;;;5.35;1.10;;;13.60;99.90;;;;;;4973757;28;20043;-76
2023/06/03 07:24:16;;;;;;;5.13;0.95;;;13.80;99.90;;;;;;4975221;28;20058;-75
2023/06/03 07:26:42;;;;;;;3.85;0.88;;;14.00;99.90;;;;;;4975300;28;20451;-76
2023/06/03 07:29:08;;;;;;;3.08;0.88;;;14.10;99.90;;;;;;4973856;28;20051;-76
2023/06/03 07:31:35;;;;;;;4.07;1.00;;;14.20;99.90;;;;;;4975129;28;20045;-76
2023/06/03 07:34:02;;;;;;;3.25;0.85;;;14.40;99.90;;;;;;4973671;28;20169;-76
2023/06/03 07:36:28;;;;;;;4.38;1.13;;;14.60;99.90;;;;;;4957363;28;20043;-76
2023/06/03 07:39:06;;;;;;;5.63;1.05;;;14.80;99.90;;;;;;4974986;28;20088;-76
2023/06/03 07:41:45;;;;;;;4.03;1.20;;;15.00;99.90;;;;;;4973540;28;20173;-77
2023/06/03 07:44:15;;;;;;;3.38;0.95;;;15.20;99.90;;;;;;4974287;28;20487;-74
2023/06/03 07:46:52;;;;;;;5.45;1.35;;;15.40;99.90;;;;;;4976004;28;20042;-75
2023/06/03 07:49:19;;;;;;;5.32;1.10;;;15.50;99.90;;;;;;4974636;28;20122;-75
2023/06/03 07:51:47;;;;;;;2.08;0.80;;;15.60;99.90;;;;;;5084783;23;20043;-76
2023/06/03 07:54:13;;;;;;;3.55;0.90;;;15.80;99.90;;;;;;4992971;28;20050;-76
2023/06/03 07:56:40;;;;;;;2.17;1.10;;;15.80;99.90;;;;;;4992715;28;20042;-78
2023/06/03 07:59:09;;;;;;;1.90;0.80;;;15.90;99.90;;;;;;4992507;28;20394;-77
2023/06/03 08:01:35;;;;;;;1.98;0.93;;;16.00;99.90;;;;;;4992829;28;20034;-78
2023/06/03 08:04:17;;;;;;;2.92;1.08;;;16.00;99.90;;;;;;4992664;28;20058;-77
2023/06/03 08:06:44;;;;;;;5.65;1.30;;;16.00;99.90;;;;;;4992793;28;20048;-78
2023/06/03 08:09:23;;;;;;;3.50;1.00;;;15.90;99.90;;;;;;4992841;28;20042;-77
2023/06/03 08:11:49;;;;;;;2.92;1.00;;;16.00;99.90;;;;;;4985292;28;20098;-77
2023/06/03 08:14:14;;;;;;;3.30;0.90;;;15.90;99.90;;;;;;4992552;28;20046;-75
2023/06/03 08:16:40;;;;;;;5.22;1.20;;;15.90;99.90;;;;;;4992302;28;20398;-77
2023/06/03 08:19:07;;;;;;;6.40;1.10;;;15.90;99.90;;;;;;4993629;28;20050;-77
2023/06/03 08:21:33;;;;;;;4.32;1.30;;;15.80;99.90;;;;;;4993817;28;20390;-77
2023/06/03 08:23:59;;;;;;;6.18;1.00;;;15.80;99.90;;;;;;4992726;28;20050;-77
2023/06/03 08:26:26;;;;;;;4.05;0.82;;;15.70;99.90;;;;;;4992744;28;20122;-76
2023/06/03 08:28:52;;;;;;;5.30;1.00;;;15.60;99.90;;;;;;4993869;28;20046;-77
2023/06/03 08:31:18;;;;;;;2.42;1.00;;;15.60;99.90;;;;;;4992743;28;20405;-76
2023/06/03 08:33:44;;;;;;;2.83;1.15;;;15.50;99.90;;;;;;4992478;28;20057;-75
2023/06/03 08:36:11;;;;;;;2.55;1.00;;;15.50;99.90;;;;;;4976196;28;20045;-76
2023/06/03 08:38:39;;;;;;;2.67;1.00;;;15.50;99.90;;;;;;4993803;28;20042;-77
2023/06/03 08:41:05;;;;;;;4.78;0.93;;;15.50;99.90;;;;;;4993599;28;20035;-76
2023/06/03 08:43:48;;;;;;;4.00;1.10;;;15.60;99.90;;;;;;4976220;28;20038;-77
2023/06/03 08:46:30;;;;;;;2.63;0.82;;;15.70;99.90;;;;;;4993700;28;20059;-77
2023/06/03 08:49:07;;;;;;;3.08;1.00;;;16.00;99.90;;;;;;4992653;28;20394;-77
2023/06/03 08:51:41;;;;;;;4.15;0.98;;;16.30;99.90;;;;;;4993707;28;20422;-78
2023/06/03 08:54:13;;;;;;;3.05;0.98;;;16.50;99.90;;;;;;4993927;28;20035;-75
2023/06/03 08:56:51;;;;;;;3.83;1.00;;;16.80;99.90;;;;;;4994019;28;20046;-76
2023/06/03 08:59:20;;;;;;;1.77;0.82;;;17.00;99.90;;;;;;4993816;28;20053;-76
2023/06/03 09:01:49;;;;;;;2.50;0.90;;;17.30;99.90;;;;;;4991889;28;20049;-77
2023/06/03 09:04:15;;;;;;;1.58;0.70;;;17.50;99.90;;;;;;4991952;28;20046;-76
2023/06/03 09:06:44;;;;;;;6.05;2.22;;;17.70;99.90;;;;;;4975905;28;20100;-76
2023/06/03 09:09:11;;;;;;;3.20;0.90;;;17.90;99.90;;;;;;4992295;28;20130;-76
2023/06/03 09:11:39;;;;;;;2.50;0.80;;;18.00;99.90;;;;;;4992824;28;20124;-76
2023/06/03 09:14:05;;;;;;;4.68;2.10;;;18.20;99.40;;;;;;4992112;28;20047;-76
2023/06/03 09:16:32;;;;;;;3.13;1.02;;;18.30;98.80;;;;;;4992203;28;20352;-76
2023/06/03 09:18:59;;;;;;;2.65;0.90;;;18.50;98.10;;;;;;4993850;28;20429;-76
2023/06/03 09:21:25;;;;;;;2.65;1.20;;;18.60;97.40;;;;;;4992068;28;20043;-75
2023/06/03 09:23:51;;;;;;;4.63;1.70;;;18.70;97.00;;;;;;4992245;28;20053;-75
2023/06/03 09:26:17;;;;;;;31.23;23.40;;;18.90;96.90;;;;;;4991866;28;20076;-76
2023/06/03 09:28:45;;;;;;;6.40;4.65;;;19.00;95.90;;;;;;4992463;28;20125;-78
2023/06/03 09:31:11;;;;;;;5.35;2.10;;;19.20;94.80;;;;;;4995814;28;20406;-75
2023/06/03 09:33:37;;;;;;;6.25;1.80;;;19.30;94.00;;;;;;4996914;28;20035;-75
2023/06/03 09:36:13;;;;;;;2.00;0.98;;;19.40;93.40;;;;;;4995298;28;20078;-76
2023/06/03 09:38:56;;;;;;;3.92;1.35;;;19.50;92.00;;;;;;4995623;28;20057;-76
2023/06/03 09:41:26;;;;;;;3.53;0.98;;;19.60;90.80;;;;;;4996700;28;20134;-76
2023/06/03 09:43:57;;;;;;;1.38;0.73;;;19.70;90.80;;;;;;4996977;28;20053;-74
2023/06/03 09:46:24;;;;;;;1.67;0.88;;;19.80;88.90;;;;;;4996163;28;20104;-76
2023/06/03 09:48:50;;;;;;;3.50;1.00;;;19.80;87.00;;;;;;4995685;28;20046;-74
2023/06/03 09:51:15;;;;;;;4.15;1.05;;;19.90;86.20;;;;;;4995240;28;20108;-75
2023/06/03 09:53:41;;;;;;;2.38;1.15;;;20.00;84.60;;;;;;4996684;28;20042;-76
2023/06/03 09:56:29;;;;;;;4.75;0.88;;;20.10;83.00;;;;;;4995226;28;20122;-76
2023/06/03 09:59:21;;;;;;;4.82;0.80;;;20.20;82.50;;;;;;4994987;28;20088;-75
2023/06/03 10:01:49;;;;;;;1.85;0.90;;;20.30;80.90;;;;;;4994790;28;20052;-75
2023/06/03 10:04:46;;;;;;;1.75;0.80;;;20.40;78.50;;;;;;4996356;28;20042;-76
2023/06/03 10:07:17;;;;;;;3.38;0.73;;;20.40;78.50;;;;;;4987427;28;20568;-76
2023/06/03 10:09:47;;;;;;;2.42;0.60;;;20.60;79.40;;;;;;4994842;28;20043;-76
2023/06/03 10:12:14;;;;;;;1.63;0.70;;;20.70;78.40;;;;;;4994628;28;20046;-77
2023/06/03 10:14:47;;;;;;;1.73;0.60;;;20.80;76.80;;;;;;4995007;28;20129;-75
2023/06/03 10:17:14;;;;;;;3.42;0.65;;;20.90;77.20;;;;;;4994744;28;20042;-79
2023/06/03 10:19:43;;;;;;;2.95;0.68;;;21.00;76.70;;;;;;4978397;28;20543;-77
2023/06/03 10:22:10;;;;;;;2.45;0.70;;;21.10;75.50;;;;;;4995997;28;20180;-75
2023/06/03 10:24:42;;;;;;;2.50;0.90;;;21.20;74.10;;;;;;4994245;28;20049;-76
2023/06/03 10:27:12;;;;;;;3.35;0.80;;;21.20;73.80;;;;;;4996334;28;20402;-75
2023/06/03 10:29:39;;;;;;;5.28;0.90;;;21.30;73.60;;;;;;4995091;28;20402;-75
2023/06/03 10:32:16;;;;;;;5.28;0.85;;;21.30;73.70;;;;;;4994308;28;20049;-76
2023/06/03 10:34:43;;;;;;;3.78;1.02;;;21.40;72.50;;;;;;4978138;28;20046;-75
2023/06/03 10:37:12;;;;;;;5.10;1.38;;;21.50;72.70;;;;;;4995812;28;20386;-75
2023/06/03 10:39:39;;;;;;;4.03;0.73;;;21.60;72.60;;;;;;4994271;28;20084;-74
2023/06/03 10:42:06;;;;;;;3.10;0.63;;;21.70;72.10;;;;;;4993663;28;20053;-76
2023/06/03 10:44:33;;;;;;;1.88;0.88;;;21.60;70.70;;;;;;4994265;28;20046;-76
2023/06/03 10:47:26;;;;;;;3.45;0.70;;;21.60;68.10;;;;;;4994037;28;20042;-75
2023/06/03 10:50:13;;;;;;;3.67;0.90;;;21.50;69.20;;;;;;4977739;28;20478;-76
2023/06/03 10:52:50;;;;;;;2.38;0.70;;;21.60;69.30;;;;;;4995260;28;20057;-76
2023/06/03 10:55:38;;;;;;;2.35;0.73;;;21.80;70.30;;;;;;4995507;28;20049;-76
2023/06/03 10:58:23;;;;;;;3.30;0.80;;;22.00;70.20;;;;;;4995340;28;20051;-75
2023/06/03 11:00:56;;;;;;;3.35;0.80;;;22.20;69.60;;;;;;4995363;28;20050;-76
2023/06/03 11:03:29;;;;;;;2.00;0.70;;;22.30;68.30;;;;;;4993831;28;20038;-75
2023/06/03 11:06:25;;;;;;;3.35;0.80;;;22.30;67.40;;;;;;4994065;28;20038;-75
2023/06/03 11:08:57;;;;;;;3.30;0.60;;;22.50;66.50;;;;;;4994541;28;20076;-76
2023/06/03 11:11:41;;;;;;;3.30;1.00;;;22.50;65.50;;;;;;4995064;28;20486;-76
2023/06/03 11:14:07;;;;;;;2.50;0.73;;;22.60;65.50;;;;;;4993575;28;20124;-76
2023/06/03 11:16:58;;;;;;;2.65;1.00;;;22.60;64.60;;;;;;4994574;28;20035;-76
2023/06/03 11:19:37;;;;;;;3.55;0.80;;;22.50;62.30;;;;;;4993439;28;20070;-76
2023/06/03 11:22:04;;;;;;;3.15;0.82;;;22.60;63.10;;;;;;4994021;28;20502;-75
2023/06/03 11:24:42;;;;;;;1.33;0.60;;;22.50;62.60;;;;;;4994351;28;20046;-75
2023/06/03 11:27:11;;;;;;;2.38;0.77;;;22.60;63.70;;;;;;4994626;28;20099;-75
2023/06/03 11:29:49;;;;;;;2.47;0.98;;;22.70;63.00;;;;;;4993386;28;20089;-77
2023/06/03 11:32:17;;;;;;;2.88;1.00;;;22.70;61.90;;;;;;4994677;28;20147;-76
2023/06/03 11:34:44;;;;;;;1.60;0.70;;;22.70;62.50;;;;;;4994587;28;20034;-77
2023/06/03 11:37:19;;;;;;;2.03;0.80;;;22.80;61.70;;;;;;4993312;28;20401;-75
2023/06/03 11:40:04;;;;;;;2.25;0.70;;;22.80;61.80;;;;;;4993293;28;20042;-82
2023/06/03 11:42:30;;;;;;;4.13;0.80;;;22.90;61.80;;;;;;4994315;28;20053;-74
2023/06/03 11:45:18;;;;;;;3.83;0.80;;;23.00;62.30;;;;;;4992807;28;20046;-76
2023/06/03 11:47:53;;;;;;;2.10;0.85;;;23.10;62.50;;;;;;4993517;28;20041;-75
2023/06/03 11:50:20;;;;;;;2.28;0.85;;;23.20;62.90;;;;;;4993337;28;20375;-76
2023/06/03 11:52:45;;;;;;;2.83;0.80;;;23.30;61.80;;;;;;4992781;28;20073;-76
2023/06/03 11:55:25;;;;;;;2.67;0.90;;;23.30;61.40;;;;;;4993599;28;20125;-75
2023/06/03 11:57:51;;;;;;;2.65;0.93;;;23.40;61.20;;;;;;4993596;28;20051;-76
2023/06/03 12:00:20;;;;;;;2.72;1.00;;;23.40;61.20;;;;;;4993158;28;20060;-76
2023/06/03 12:02:46;;;;;;;4.10;0.93;;;23.50;60.50;;;;;;4994019;28;20047;-76
2023/06/03 12:05:15;;;;;;;3.08;0.75;;;23.60;60.30;;;;;;4994794;28;20042;-77
2023/06/03 12:07:43;;;;;;;4.72;1.05;;;23.70;60.00;;;;;;4993035;28;20050;-77
2023/06/03 12:10:11;;;;;;;3.85;0.95;;;23.80;60.40;;;;;;4993159;28;20042;-76
2023/06/03 12:12:52;;;;;;;2.08;0.90;;;23.80;59.80;;;;;;4994356;28;20061;-74
2023/06/03 12:15:18;;;;;;;3.03;0.80;;;23.80;59.50;;;;;;4994818;28;20129;-76
2023/06/03 12:17:44;;;;;;;2.40;0.80;;;23.80;59.90;;;;;;4993573;28;20046;-75
2023/06/03 12:20:30;;;;;;;3.17;0.93;;;23.70;58.20;;;;;;4993044;28;20124;-76
2023/06/03 12:23:04;;;;;;;2.83;0.95;;;23.70;56.80;;;;;;4976612;28;20038;-76
2023/06/03 12:25:33;;;;;;;3.00;0.85;;;23.80;57.50;;;;;;4992960;28;20038;-77
2023/06/03 12:28:27;;;;;;;2.25;0.82;;;23.90;57.60;;;;;;4995042;28;20050;-82
2023/06/03 12:30:53;;;;;;;2.85;0.95;;;23.80;56.70;;;;;;4993824;28;20054;-82
2023/06/03 12:33:19;;;;;;;2.05;0.90;;;23.80;57.30;;;;;;4995179;28;20069;-81
2023/06/03 12:35:55;;;;;;;3.08;1.25;;;23.80;57.50;;;;;;4994401;28;20034;-80
2023/06/03 12:38:21;;;;;;;2.63;0.77;;;23.90;58.20;;;;;;4995646;28;20509;-83
2023/06/03 12:40:47;;;;;;;3.47;0.80;;;24.00;58.30;;;;;;4993932;28;20047;-81
2023/06/03 12:43:21;;;;;;;3.83;1.23;;;24.10;58.00;;;;;;4995707;28;20038;-81
2023/06/03 12:45:47;;;;;;;4.70;1.00;;;24.10;57.50;;;;;;4993901;28;20053;-82
2023/06/03 12:48:36;;;;;;;2.97;1.00;;;24.30;57.80;;;;;;4993515;28;20065;-84
2023/06/03 12:51:02;;;;;;;4.43;1.23;;;24.30;57.90;;;;;;4993399;28;20152;-84
2023/06/03 12:53:29;;;;;;;3.38;0.82;;;24.30;57.80;;;;;;4994386;28;20577;-84
2023/06/03 12:55:55;;;;;;;3.03;1.10;;;24.30;58.20;;;;;;4995049;28;20038;-87
2023/06/03 12:58:20;;;;;;;3.13;0.90;;;24.20;57.10;;;;;;4995510;28;20042;-91
2023/06/03 13:00:46;;;;;;;4.18;1.05;;;24.20;58.10;;;;;;4994199;28;20038;-87
2023/06/03 13:03:12;;;;;;;12.70;1.75;;;24.30;57.60;;;;;;4995576;28;20113;-86
2023/06/03 13:05:37;;;;;;;2.00;0.85;;;24.40;57.90;;;;;;4998356;28;20038;-86
2023/06/03 13:08:03;;;;;;;2.80;0.80;;;24.50;57.90;;;;;;4982075;28;20104;-87
2023/06/03 13:10:29;;;;;;;3.75;0.77;;;24.60;57.90;;;;;;4999099;28;20459;-85
2023/06/03 13:12:54;;;;;;;2.20;0.88;;;24.70;57.60;;;;;;4997799;28;20089;-85
2023/06/03 13:15:20;;;;;;;2.33;0.85;;;24.70;57.60;;;;;;4981886;28;20049;-87
2023/06/03 13:17:46;;;;;;;3.75;1.35;;;24.80;57.10;;;;;;4980659;28;20081;-87
2023/06/03 13:20:12;;;;;;;2.28;0.90;;;24.80;57.40;;;;;;4997561;28;20086;-87
2023/06/03 13:22:39;;;;;;;5.53;1.55;;;24.70;56.80;;;;;;4999237;28;20038;-85
2023/06/03 13:25:05;;;;;;;3.22;0.70;;;24.70;57.60;;;;;;4997453;28;20415;-82
2023/06/03 13:27:31;;;;;;;2.03;0.70;;;24.80;57.60;;;;;;4997360;28;20050;-84
2023/06/03 13:29:57;;;;;;;5.47;1.00;;;24.90;58.40;;;;;;4998321;28;20509;-85
2023/06/03 13:32:23;;;;;;;2.10;0.85;;;24.90;58.30;;;;;;4998659;28;20052;-85
2023/06/03 13:34:50;;;;;;;2.78;0.80;;;25.00;57.90;;;;;;4998439;28;20064;-85
2023/06/03 13:37:17;;;;;;;2.15;0.80;;;25.00;57.50;;;;;;4980312;28;20089;-85
2023/06/03 13:39:42;;;;;;;3.00;0.85;;;25.00;57.00;;;;;;4997280;28;20410;-83
2023/06/03 13:42:08;;;;;;;2.30;0.90;;;24.90;56.50;;;;;;4997556;28;20038;-88
2023/06/03 13:44:34;;;;;;;2.35;1.05;;;24.90;56.50;;;;;;4981477;28;20043;-83
2023/06/03 13:47:03;;;;;;;5.88;1.13;;;25.00;56.60;;;;;;4998286;28;20046;-85
2023/06/03 13:49:28;;;;;;;2.70;0.90;;;25.00;56.50;;;;;;4998454;28;20038;-85
2023/06/03 13:51:54;;;;;;;2.92;0.85;;;25.00;56.50;;;;;;4979884;28;20458;-83
2023/06/03 13:54:21;;;;;;;2.78;1.08;;;25.00;55.70;;;;;;4999669;28;20038;-82
2023/06/03 13:56:47;;;;;;;3.47;1.00;;;24.90;55.20;;;;;;4997049;28;20486;-82
2023/06/03 13:59:13;;;;;;;4.50;0.90;;;25.00;56.00;;;;;;4997055;28;20050;-85
2023/06/03 14:01:39;;;;;;;2.80;0.70;;;25.00;56.00;;;;;;4997148;28;20046;-84
2023/06/03 14:04:07;;;;;;;5.25;0.93;;;25.00;55.10;;;;;;4997876;28;20046;-82
2023/06/03 14:06:33;;;;;;;3.47;1.00;;;24.90;54.80;;;;;;4998402;28;20038;-86
2023/06/03 14:08:58;;;;;;;5.03;0.90;;;24.80;55.20;;;;;;4996894;28;20176;-86
2023/06/03 14:11:25;;;;;;;2.17;1.05;;;24.90;55.60;;;;;;5000020;28;20064;-84
2023/06/03 14:13:51;;;;;;;2.72;1.00;;;24.90;55.60;;;;;;4981344;28;20049;-85
2023/06/03 14:16:17;;;;;;;2.45;0.98;;;25.00;55.80;;;;;;4996984;28;20045;-83
2023/06/03 14:18:42;;;;;;;2.60;1.00;;;25.10;55.80;;;;;;4997746;28;20121;-84
2023/06/03 14:21:08;;;;;;;2.25;0.80;;;25.10;55.50;;;;;;4996032;28;20042;-84
2023/06/03 14:23:34;;;;;;;4.90;1.10;;;25.20;55.10;;;;;;4997734;28;20390;-85
2023/06/03 14:26:01;;;;;;;3.33;1.25;;;25.30;55.30;;;;;;4997488;28;20133;-84
2023/06/03 14:28:27;;;;;;;4.70;1.10;;;25.30;55.40;;;;;;4996127;28;20074;-84
2023/06/03 14:30:54;;;;;;;1.50;0.80;;;25.20;55.80;;;;;;4998535;28;20502;-83
2023/06/03 14:33:21;;;;;;;2.65;0.95;;;25.30;55.70;;;;;;4995814;28;20057;-82
2023/06/03 14:35:46;;;;;;;3.67;1.05;;;25.20;55.30;;;;;;4997555;28;20099;-82
2023/06/03 14:38:13;;;;;;;1.67;0.80;;;25.20;55.30;;;;;;4997488;28;20042;-83
2023/06/03 14:40:39;;;;;;;2.13;0.80;;;25.10;55.30;;;;;;4982800;28;20050;-78
2023/06/03 14:43:05;;;;;;;3.63;0.98;;;25.20;55.40;;;;;;4997565;28;20410;-81
2023/06/03 14:45:30;;;;;;;3.55;1.08;;;25.10;55.50;;;;;;4999103;28;20093;-82
2023/06/03 14:47:56;;;;;;;1.80;0.82;;;25.10;55.40;;;;;;4995936;28;20546;-82
2023/06/03 14:50:22;;;;;;;4.40;1.00;;;25.10;55.20;;;;;;4995512;28;20437;-83
2023/06/03 14:52:50;;;;;;;2.50;0.90;;;25.10;55.50;;;;;;4996127;28;20042;-80
2023/06/03 14:55:16;;;;;;;1.98;0.90;;;25.10;55.30;;;;;;4979392;28;20127;-82
2023/06/03 14:57:42;;;;;;;2.25;0.90;;;25.10;55.60;;;;;;4995988;28;20129;-83
2023/06/03 15:00:08;;;;;;;4.70;1.00;;;25.00;55.80;;;;;;4995453;28;20069;-79
2023/06/03 15:02:33;;;;;;;2.55;0.90;;;24.90;56.10;;;;;;4995936;28;20160;-77
2023/06/03 15:04:59;;;;;;;2.42;0.93;;;24.80;56.20;;;;;;4995507;28;20117;-79
2023/06/03 15:07:25;;;;;;;3.00;0.88;;;24.70;56.50;;;;;;4996083;28;20046;-76
2023/06/03 15:09:50;;;;;;;3.05;0.88;;;24.70;57.40;;;;;;4994261;28;20046;-77
2023/06/03 15:12:16;;;;;;;5.28;1.00;;;24.90;57.20;;;;;;4995882;28;20042;-76
2023/06/03 15:14:42;;;;;;;2.85;0.70;;;24.80;57.10;;;;;;4993909;28;20043;-77
2023/06/03 15:17:08;;;;;;;4.55;1.10;;;24.80;57.40;;;;;;4994182;28;20414;-75
2023/06/03 15:19:34;;;;;;;2.63;0.80;;;24.80;57.40;;;;;;4994124;28;20042;-76
2023/06/03 15:21:59;;;;;;;4.28;1.10;;;24.80;57.00;;;;;;4995335;28;20092;-76
2023/06/03 15:24:25;;;;;;;2.13;0.90;;;24.70;57.00;;;;;;4993711;28;20520;-76
2023/06/03 15:26:51;;;;;;;2.80;1.30;;;24.70;57.40;;;;;;4993683;28;20074;-76
2023/06/03 15:29:17;;;;;;;1.42;0.82;;;24.70;57.50;;;;;;4978259;28;20046;-76
2023/06/03 15:31:44;;;;;;;4.25;0.85;;;24.70;57.60;;;;;;4994633;28;20042;-76
2023/06/03 15:34:10;;;;;;;2.45;1.02;;;24.60;57.60;;;;;;4995091;28;20082;-75
2023/06/03 15:36:35;;;;;;;3.05;0.90;;;24.60;58.10;;;;;;4994508;28;20069;-75
2023/06/03 15:39:01;;;;;;;8.45;4.65;;;24.60;58.40;;;;;;4993539;28;20121;-77
2023/06/03 15:41:27;;;;;;;3.33;1.08;;;24.70;59.00;;;;;;4994494;28;20415;-77
2023/06/03 15:43:55;;;;;;;2.75;1.00;;;24.70;58.70;;;;;;4994455;28;20558;-76
2023/06/03 15:46:24;;;;;;;4.55;0.90;;;24.80;58.40;;;;;;4993120;28;20412;-76
2023/06/03 15:48:49;;;;;;;2.88;0.80;;;24.80;58.40;;;;;;4992952;28;20046;-75
2023/06/03 15:51:15;;;;;;;2.88;1.05;;;24.70;58.10;;;;;;4992988;28;20046;-76
2023/06/03 15:53:41;;;;;;;4.25;0.95;;;24.70;58.10;;;;;;4994473;28;20362;-78
2023/06/03 15:56:07;;;;;;;3.63;1.00;;;24.70;57.70;;;;;;4994385;28;20042;-76
2023/06/03 15:58:33;;;;;;;4.25;1.00;;;24.60;58.10;;;;;;4992764;28;20117;-74
2023/06/03 16:01:00;;;;;;;4.20;0.85;;;24.50;58.20;;;;;;4992948;28;20053;-76
2023/06/03 16:03:26;;;;;;;5.00;1.10;;;24.50;58.70;;;;;;4993212;28;20125;-77
2023/06/03 16:05:52;;;;;;;3.38;1.23;;;24.40;59.40;;;;;;4992924;28;20042;-75
2023/06/03 16:08:17;;;;;;;3.17;0.80;;;24.30;59.40;;;;;;4992939;28;20220;-77
2023/06/03 16:10:43;;;;;;;3.35;1.08;;;24.30;59.90;;;;;;4993172;28;20042;-76
2023/06/03 16:13:09;;;;;;;2.30;0.90;;;24.10;59.70;;;;;;4992974;28;20576;-76
2023/06/03 16:15:36;;;;;;;3.40;0.85;;;24.10;60.20;;;;;;4993163;28;20049;-75
2023/06/03 16:18:02;;;;;;;1.67;0.70;;;23.90;60.00;;;;;;4992937;28;20058;-75
2023/06/03 16:20:27;;;;;;;3.67;1.10;;;23.80;60.40;;;;;;4992650;28;20204;-75
2023/06/03 16:22:53;;;;;;;4.45;1.00;;;23.60;61.00;;;;;;4992736;28;20060;-76
2023/06/03 16:25:19;;;;;;;5.95;1.30;;;23.50;61.20;;;;;;4992734;28;20446;-75
2023/06/03 16:27:45;;;;;;;1.85;0.73;;;23.50;61.10;;;;;;4992768;28;20042;-75
2023/06/03 16:30:11;;;;;;;3.28;1.10;;;23.50;61.20;;;;;;4992836;28;20060;-76
2023/06/03 16:32:37;;;;;;;2.95;1.00;;;23.50;61.80;;;;;;4976584;28;20050;-76
2023/06/03 16:35:04;;;;;;;3.10;0.95;;;23.50;62.30;;;;;;4993886;28;20057;-75
2023/06/03 16:37:29;;;;;;;6.40;1.05;;;23.50;61.90;;;;;;4992716;28;20039;-75
2023/06/03 16:39:57;;;;;;;7.43;1.10;;;23.50;62.10;;;;;;4994808;28;20243;-76
2023/06/03 16:42:23;;;;;;;4.00;1.00;;;23.40;62.30;;;;;;4996470;28;20042;-76
2023/06/03 16:44:48;;;;;;;3.92;0.95;;;23.40;62.00;;;;;;4996310;28;20119;-77
2023/06/03 16:47:14;;;;;;;3.13;1.20;;;23.30;61.80;;;;;;4997662;28;20034;-76
2023/06/03 16:49:39;;;;;;;3.03;1.20;;;23.20;61.70;;;;;;4996313;28;20379;-75
2023/06/03 16:52:05;;;;;;;4.80;1.10;;;23.10;62.30;;;;;;4996023;28;20078;-75
2023/06/03 16:54:31;;;;;;;4.15;0.95;;;23.00;62.20;;;;;;4996409;28;20046;-76